createdAt,value
2024-03-12T00:01:49.583Z,11.20
2024-03-12T00:04:18.016Z,11.50
2024-03-12T00:06:46.207Z,10.80
2024-03-12T00:09:13.948Z,9.80
2024-03-12T00:11:43.765Z,11.10
2024-03-12T00:14:11.406Z,11.50
2024-03-12T00:16:41.900Z,10.30
2024-03-12T00:19:11.024Z,10.70
2024-03-12T00:21:38.693Z,11.10
2024-03-12T00:24:06.695Z,10.40
2024-03-12T00:26:34.422Z,9.90
2024-03-12T00:29:02.189Z,11.80
2024-03-12T00:31:29.596Z,11.80
2024-03-12T00:34:01.739Z,10.70
2024-03-12T00:36:30.184Z,10.90
2024-03-12T00:38:58.985Z,10.90
2024-03-12T00:41:26.520Z,10.60
2024-03-12T00:43:55.404Z,10.60
2024-03-12T00:46:23.735Z,10.70
2024-03-12T00:48:51.473Z,10.30
2024-03-12T00:51:19.732Z,11.00
2024-03-12T00:53:47.405Z,11.90
2024-03-12T00:56:16.683Z,10.50
2024-03-12T00:58:44.393Z,10.70
2024-03-12T01:01:16.618Z,10.80
2024-03-12T01:03:44.494Z,10.00
2024-03-12T01:06:13.194Z,12.10
2024-03-12T01:08:44.093Z,11.60
2024-03-12T01:11:13.658Z,11.40
2024-03-12T01:13:41.623Z,11.90
2024-03-12T01:16:09.189Z,11.20
2024-03-12T01:18:37.221Z,10.60
2024-03-12T01:21:04.846Z,10.30
2024-03-12T01:23:32.455Z,11.40
2024-03-12T01:25:59.978Z,12.10
2024-03-12T01:28:27.381Z,12.60
2024-03-12T01:30:54.964Z,12.40
2024-03-12T01:33:22.695Z,11.90
2024-03-12T01:35:50.498Z,12.10
2024-03-12T01:38:17.908Z,13.00
2024-03-12T01:40:45.525Z,12.40
2024-03-12T01:43:14.276Z,11.90
2024-03-12T01:45:43.810Z,11.20
2024-03-12T01:48:12.852Z,11.00
2024-03-12T01:50:41.384Z,11.70
2024-03-12T01:53:09.884Z,11.90
2024-03-12T01:55:45.192Z,12.00
2024-03-12T01:58:19.006Z,11.20
2024-03-12T02:00:47.593Z,11.20
2024-03-12T02:03:17.279Z,12.50
2024-03-12T02:05:47.858Z,11.60
2024-03-12T02:08:15.438Z,12.40
2024-03-12T02:10:43.082Z,11.60
2024-03-12T02:13:10.663Z,11.70
2024-03-12T02:15:38.516Z,12.20
2024-03-12T02:18:09.963Z,11.50
2024-03-12T02:20:39.670Z,10.50
2024-03-12T02:23:07.365Z,12.00
2024-03-12T02:25:34.866Z,11.40
2024-03-12T02:28:04.404Z,13.10
2024-03-12T02:30:32.358Z,11.50
2024-03-12T02:33:00.037Z,12.60
2024-03-12T02:35:27.825Z,11.60
2024-03-12T02:37:55.316Z,11.90
2024-03-12T02:40:23.805Z,13.50
2024-03-12T02:42:51.596Z,11.20
2024-03-12T02:45:22.387Z,12.40
2024-03-12T02:47:50.655Z,11.00
2024-03-12T02:50:19.648Z,11.90
2024-03-12T02:52:47.377Z,11.50
2024-03-12T02:55:15.541Z,11.60
2024-03-12T02:57:43.451Z,12.80
2024-03-12T03:00:16.108Z,12.60
2024-03-12T03:02:45.188Z,13.20
2024-03-12T03:05:14.580Z,11.90
2024-03-12T03:07:42.647Z,13.20
2024-03-12T03:10:14.466Z,12.00
2024-03-12T03:12:43.350Z,11.20
2024-03-12T03:15:13.831Z,12.70
2024-03-12T03:17:47.068Z,12.70
2024-03-12T03:20:17.774Z,12.00
2024-03-12T03:22:48.584Z,12.90
2024-03-12T03:25:16.656Z,12.80
2024-03-12T03:27:44.573Z,12.00
2024-03-12T03:30:14.573Z,12.20
2024-03-12T03:32:42.254Z,12.60
2024-03-12T03:35:10.009Z,11.80
2024-03-12T03:37:37.635Z,12.20
2024-03-12T03:40:06.261Z,12.80
2024-03-12T03:42:33.907Z,12.00
2024-03-12T03:45:01.541Z,11.90
2024-03-12T03:47:35.407Z,10.70
2024-03-12T03:50:04.345Z,12.40
2024-03-12T03:52:31.962Z,11.30
2024-03-12T03:54:59.404Z,11.70
2024-03-12T03:57:27.376Z,11.50
2024-03-12T03:59:54.990Z,12.00
2024-03-12T04:02:22.726Z,11.40
2024-03-12T04:04:50.875Z,11.10
2024-03-12T04:07:21.140Z,11.10
2024-03-12T04:09:48.832Z,11.00
2024-03-12T04:12:16.531Z,11.60
2024-03-12T04:14:44.017Z,11.50
2024-03-12T04:17:11.467Z,11.30
2024-03-12T04:19:39.003Z,11.80
2024-03-12T04:22:07.399Z,11.00
2024-03-12T04:24:35.330Z,11.70
2024-03-12T04:27:02.958Z,11.00
2024-03-12T04:29:30.464Z,11.20
2024-03-12T04:31:57.960Z,11.70
2024-03-12T04:34:25.642Z,11.20
2024-03-12T04:36:53.114Z,12.10
2024-03-12T04:39:33.207Z,10.30
2024-03-12T04:42:03.555Z,11.50
2024-03-12T04:44:31.144Z,11.70
2024-03-12T04:46:58.792Z,11.10
2024-03-12T04:49:27.086Z,11.50
2024-03-12T04:51:54.818Z,10.30
2024-03-12T04:54:22.470Z,11.00
2024-03-12T04:56:52.931Z,11.00
2024-03-12T04:59:20.582Z,13.00
2024-03-12T05:01:50.414Z,11.40
2024-03-12T05:04:22.604Z,11.60
2024-03-12T05:06:51.802Z,12.00
2024-03-12T05:09:19.744Z,12.10
2024-03-12T05:11:47.367Z,12.00
2024-03-12T05:14:15.020Z,11.50
2024-03-12T05:16:43.150Z,11.60
2024-03-12T05:19:12.945Z,12.00
2024-03-12T05:21:40.705Z,11.70
2024-03-12T05:24:08.391Z,11.40
2024-03-12T05:26:45.248Z,11.70
2024-03-12T05:29:13.463Z,12.90
2024-03-12T05:31:41.613Z,12.50
2024-03-12T05:34:20.247Z,12.20
2024-03-12T05:36:53.321Z,12.80
2024-03-12T05:39:50.435Z,11.70
2024-03-12T05:42:37.466Z,12.40
2024-03-12T05:45:24.114Z,12.00
2024-03-12T05:48:10.595Z,13.50
2024-03-12T05:50:42.406Z,12.60
2024-03-12T05:53:10.086Z,14.00
2024-03-12T05:55:37.628Z,13.80
2024-03-12T05:58:06.205Z,13.30
2024-03-12T06:00:34.011Z,14.10
2024-03-12T06:03:01.548Z,12.30
2024-03-12T06:05:29.112Z,13.20
2024-03-12T06:07:56.676Z,13.90
2024-03-12T06:10:24.266Z,12.90
2024-03-12T06:12:52.244Z,13.10
2024-03-12T06:15:20.466Z,14.30
2024-03-12T06:17:47.932Z,14.90
2024-03-12T06:20:15.630Z,13.90
2024-03-12T06:22:46.045Z,12.40
2024-03-12T06:25:14.011Z,13.80
2024-03-12T06:27:42.925Z,14.50
2024-03-12T06:30:12.429Z,14.00
2024-03-12T06:32:40.034Z,13.20
2024-03-12T06:35:09.135Z,13.50
2024-03-12T06:37:36.636Z,14.50
2024-03-12T06:40:06.059Z,14.30
2024-03-12T06:42:34.040Z,15.20
2024-03-12T06:45:03.550Z,13.60
2024-03-12T06:47:38.227Z,14.90
2024-03-12T06:50:10.084Z,14.10
2024-03-12T06:52:37.636Z,14.70
2024-03-12T06:55:06.391Z,15.00
2024-03-12T06:57:35.639Z,14.20
2024-03-12T07:00:10.890Z,14.20
2024-03-12T07:02:39.719Z,14.20
2024-03-12T07:05:11.290Z,15.20
2024-03-12T07:07:45.316Z,16.30
2024-03-12T07:10:13.109Z,14.90
2024-03-12T07:12:40.811Z,15.80
2024-03-12T07:15:08.915Z,17.10
2024-03-12T07:17:36.453Z,15.40
2024-03-12T07:20:11.504Z,14.50
2024-03-12T07:22:46.398Z,16.10
2024-03-12T07:25:14.887Z,16.60
2024-03-12T07:27:42.914Z,15.70
2024-03-12T07:30:11.822Z,15.40
2024-03-12T07:32:39.446Z,14.90
2024-03-12T07:35:07.821Z,15.30
2024-03-12T07:37:40.677Z,15.20
2024-03-12T07:40:13.272Z,17.80
2024-03-12T07:42:42.965Z,15.40
2024-03-12T07:45:11.698Z,15.90
2024-03-12T07:47:42.238Z,17.30
2024-03-12T07:50:12.501Z,15.40
2024-03-12T07:52:40.546Z,17.80
2024-03-12T07:55:11.271Z,16.00
2024-03-12T07:57:39.261Z,16.00
2024-03-12T08:00:16.387Z,16.20
2024-03-12T08:02:44.317Z,16.00
2024-03-12T08:05:12.289Z,17.60
2024-03-12T08:08:52.887Z,17.00
2024-03-12T08:11:21.044Z,19.80
2024-03-12T08:13:49.574Z,16.30
2024-03-12T08:16:17.208Z,18.90
2024-03-12T08:18:44.855Z,18.60
2024-03-12T08:21:13.099Z,18.60
2024-03-12T08:23:40.741Z,18.20
2024-03-12T08:27:20.677Z,19.80
2024-03-12T08:29:48.342Z,17.80
2024-03-12T08:32:15.992Z,17.50
2024-03-12T08:34:43.950Z,18.90
2024-03-12T08:37:13.473Z,18.20
2024-03-12T08:39:41.887Z,18.70
2024-03-12T08:42:11.291Z,18.90
2024-03-12T08:44:39.125Z,18.90
2024-03-12T08:47:07.097Z,18.90
2024-03-12T08:49:34.879Z,19.50
2024-03-12T08:52:04.886Z,19.10
2024-03-12T08:54:32.939Z,20.00
2024-03-12T08:57:02.302Z,19.70
2024-03-12T08:59:30.728Z,19.80
2024-03-12T09:02:02.169Z,20.10
2024-03-12T09:04:31.747Z,20.00
2024-03-12T09:07:00.323Z,20.50
2024-03-12T09:09:28.378Z,19.90
2024-03-12T09:11:57.395Z,21.30
2024-03-12T09:14:25.966Z,19.70
2024-03-12T09:16:53.637Z,19.20
2024-03-12T09:19:26.159Z,19.50
2024-03-12T09:21:54.555Z,19.60
2024-03-12T09:24:24.099Z,19.20
2024-03-12T09:26:53.193Z,20.70
2024-03-12T09:29:21.980Z,21.00
2024-03-12T09:31:49.414Z,20.00
2024-03-12T09:34:18.159Z,21.20
2024-03-12T09:36:46.156Z,19.20
2024-03-12T09:39:13.805Z,19.70
2024-03-12T09:41:43.596Z,21.00
2024-03-12T09:44:12.527Z,19.10
2024-03-12T09:46:40.779Z,20.10
2024-03-12T09:49:09.224Z,21.10
2024-03-12T09:51:37.956Z,19.20
2024-03-12T09:54:05.595Z,19.30
2024-03-12T09:56:35.096Z,19.20
2024-03-12T09:59:02.612Z,20.70
2024-03-12T10:01:30.231Z,19.90
2024-03-12T10:03:58.519Z,18.90
2024-03-12T10:06:27.111Z,18.90
2024-03-12T10:09:01.293Z,21.00
2024-03-12T10:11:28.886Z,20.60
2024-03-12T10:14:07.338Z,19.40
2024-03-12T10:16:35.921Z,19.80
2024-03-12T10:19:16.345Z,21.00
2024-03-12T10:21:46.453Z,20.90
2024-03-12T10:24:15.507Z,19.90
2024-03-12T10:26:43.622Z,21.00
2024-03-12T10:29:19.533Z,22.30
2024-03-12T10:31:48.085Z,22.00
2024-03-12T10:34:21.573Z,21.80
2024-03-12T10:36:51.463Z,22.20
2024-03-12T10:39:30.123Z,21.80
2024-03-12T10:42:00.663Z,22.10
2024-03-12T10:44:30.155Z,22.70
2024-03-12T10:47:00.650Z,23.50
2024-03-12T10:49:29.266Z,22.70
2024-03-12T10:51:56.857Z,23.30
2024-03-12T10:54:25.325Z,23.10
2024-03-12T10:56:53.026Z,22.60
2024-03-12T10:59:20.553Z,21.20
2024-03-12T11:01:49.607Z,19.70
2024-03-12T11:04:17.407Z,19.10
2024-03-12T11:06:45.142Z,19.90
2024-03-12T11:09:13.426Z,20.30
2024-03-12T11:11:41.594Z,19.90
2024-03-12T11:14:09.283Z,19.50
2024-03-12T11:16:37.856Z,20.00
2024-03-12T11:19:24.731Z,19.20
2024-03-12T11:21:53.335Z,20.30
2024-03-12T11:24:32.022Z,21.20
2024-03-12T11:27:05.084Z,18.80
2024-03-12T11:30:05.563Z,19.00
2024-03-12T11:32:45.705Z,19.60
2024-03-12T11:35:21.417Z,16.90
2024-03-12T11:38:03.901Z,15.10
2024-03-12T11:40:41.074Z,16.90
2024-03-12T11:43:18.180Z,16.70
2024-03-12T11:45:48.843Z,17.40
2024-03-12T11:48:22.266Z,16.90
2024-03-12T11:50:56.085Z,17.30
2024-03-12T11:53:24.098Z,15.80
2024-03-12T11:55:59.403Z,16.30
2024-03-12T11:58:36.039Z,17.90
2024-03-12T12:01:04.064Z,16.20
2024-03-12T12:03:31.931Z,16.80
2024-03-12T12:06:00.312Z,15.70
2024-03-12T12:08:30.328Z,17.50
2024-03-12T12:11:04.036Z,16.00
2024-03-12T12:13:32.008Z,16.80
2024-03-12T12:16:02.457Z,14.80
2024-03-12T12:18:31.222Z,15.30
2024-03-12T12:21:01.491Z,15.70
2024-03-12T12:23:29.323Z,13.50
2024-03-12T12:25:57.859Z,16.00
2024-03-12T12:28:26.336Z,15.30
2024-03-12T12:30:58.339Z,14.20
2024-03-12T12:33:26.598Z,14.50
2024-03-12T12:35:58.930Z,15.00
2024-03-12T12:38:27.228Z,15.40
2024-03-12T12:40:55.116Z,15.20
2024-03-12T12:43:23.284Z,14.30
2024-03-12T12:45:51.105Z,15.00
2024-03-12T12:48:19.777Z,15.70
2024-03-12T12:50:55.164Z,15.50
2024-03-12T12:53:23.699Z,14.60
2024-03-12T12:55:58.619Z,13.90
2024-03-12T12:58:34.668Z,15.50
2024-03-12T13:01:03.603Z,15.80
2024-03-12T13:03:36.566Z,16.40
2024-03-12T13:06:24.002Z,18.10
2024-03-12T13:08:52.783Z,19.60
2024-03-12T13:11:22.908Z,17.80
2024-03-12T13:13:52.404Z,20.50
2024-03-12T13:16:22.949Z,19.10
2024-03-12T13:18:51.884Z,20.40
2024-03-12T13:21:22.740Z,19.20
2024-03-12T13:23:51.287Z,18.90
2024-03-12T13:26:20.116Z,19.20
2024-03-12T13:28:49.714Z,17.40
2024-03-12T13:31:17.559Z,17.40
2024-03-12T13:33:45.989Z,16.90
2024-03-12T13:36:14.058Z,16.20
2024-03-12T13:38:41.883Z,16.50
2024-03-12T13:41:10.719Z,16.30
2024-03-12T13:43:39.047Z,15.50
2024-03-12T13:46:06.896Z,14.30
2024-03-12T13:48:38.497Z,14.70
2024-03-12T13:51:08.888Z,16.20
2024-03-12T13:53:36.785Z,16.30
2024-03-12T13:56:07.982Z,15.80
2024-03-12T13:58:35.621Z,15.50
2024-03-12T14:01:03.485Z,15.30
2024-03-12T14:03:32.513Z,15.20
2024-03-12T14:06:05.094Z,13.80
2024-03-12T14:08:32.691Z,14.20
2024-03-12T14:11:00.367Z,13.00
2024-03-12T14:13:28.455Z,14.00
2024-03-12T14:15:57.205Z,14.50
2024-03-12T14:18:25.061Z,14.60
2024-03-12T14:20:52.679Z,14.20
2024-03-12T14:23:21.305Z,14.20
2024-03-12T14:25:50.432Z,14.00
2024-03-12T14:28:18.214Z,15.70
2024-03-12T14:30:46.292Z,15.70
2024-03-12T14:33:14.144Z,16.10
2024-03-12T14:35:41.986Z,14.40
2024-03-12T14:38:09.754Z,13.50
2024-03-12T14:40:37.465Z,15.20
2024-03-12T14:43:06.024Z,14.90
2024-03-12T14:45:34.084Z,14.80
2024-03-12T14:48:03.671Z,15.10
2024-03-12T14:50:31.257Z,16.90
2024-03-12T14:52:58.991Z,16.30
2024-03-12T14:55:26.639Z,16.80
2024-03-12T14:57:54.439Z,16.40
2024-03-12T15:00:23.313Z,15.30
2024-03-12T15:02:50.903Z,16.10
2024-03-12T15:05:21.897Z,15.80
2024-03-12T15:07:49.906Z,14.50
2024-03-12T15:10:18.150Z,16.40
2024-03-12T15:12:45.977Z,16.10
2024-03-12T15:15:15.634Z,15.40
2024-03-12T15:17:46.432Z,16.00
2024-03-12T15:20:17.241Z,17.50
2024-03-12T15:22:46.728Z,18.70
2024-03-12T15:25:16.618Z,18.40
2024-03-12T15:27:44.263Z,17.90
2024-03-12T15:30:13.250Z,18.30
2024-03-12T15:32:42.850Z,22.30
2024-03-12T15:35:12.289Z,22.50
2024-03-12T15:37:40.050Z,22.00
2024-03-12T15:40:10.288Z,22.90
2024-03-12T15:42:41.018Z,26.30
2024-03-12T15:45:12.808Z,23.60
2024-03-12T15:47:40.914Z,24.60
2024-03-12T15:50:09.055Z,22.90
2024-03-12T15:52:37.238Z,20.10
2024-03-12T15:55:05.726Z,22.00
2024-03-12T15:57:35.208Z,19.60
2024-03-12T16:00:05.868Z,18.90
2024-03-12T16:02:38.384Z,19.80
2024-03-12T16:05:06.815Z,20.10
2024-03-12T16:07:38.309Z,20.40
2024-03-12T16:10:09.763Z,21.00
2024-03-12T16:12:40.518Z,21.10
2024-03-12T16:15:10.893Z,21.00
2024-03-12T16:17:38.672Z,21.10
2024-03-12T16:20:14.459Z,22.10
2024-03-12T16:22:43.175Z,23.60
2024-03-12T16:25:11.569Z,24.50
2024-03-12T16:27:41.048Z,22.40
2024-03-12T16:30:10.976Z,21.50
2024-03-12T16:32:42.808Z,20.80
2024-03-12T16:35:10.588Z,19.30
2024-03-12T16:37:39.946Z,19.50
2024-03-12T16:40:08.902Z,20.40
2024-03-12T16:42:37.068Z,19.10
2024-03-12T16:45:06.806Z,18.00
2024-03-12T16:47:34.964Z,19.20
2024-03-12T16:50:09.326Z,20.10
2024-03-12T16:52:37.895Z,18.90
2024-03-12T16:55:06.443Z,18.50
2024-03-12T16:57:35.292Z,16.90
2024-03-12T17:00:05.208Z,18.50
2024-03-12T17:02:45.234Z,18.80
2024-03-12T17:05:14.695Z,18.70
2024-03-12T17:07:43.118Z,18.00
2024-03-12T17:10:12.772Z,17.60
2024-03-12T17:12:41.551Z,16.80
2024-03-12T17:15:12.999Z,17.50
2024-03-12T17:17:40.673Z,15.60
2024-03-12T17:20:12.279Z,17.20
2024-03-12T17:22:42.653Z,16.80
2024-03-12T17:25:11.921Z,16.20
2024-03-12T17:27:42.513Z,16.90
2024-03-12T17:30:11.535Z,16.40
2024-03-12T17:32:40.773Z,15.90
2024-03-12T17:35:16.234Z,15.30
2024-03-12T17:37:47.095Z,16.90
2024-03-12T17:40:15.539Z,15.10
2024-03-12T17:42:47.004Z,15.10
2024-03-12T17:45:15.761Z,14.00
2024-03-12T17:47:50.690Z,16.10
2024-03-12T17:50:19.213Z,15.10
2024-03-12T17:52:59.755Z,16.00
2024-03-12T17:55:29.424Z,15.40
2024-03-12T17:57:57.426Z,15.00
2024-03-12T18:00:25.651Z,15.50
2024-03-12T18:02:56.243Z,15.90
2024-03-12T18:05:24.254Z,16.10
2024-03-12T18:07:55.064Z,16.80
2024-03-12T18:10:26.365Z,15.50
2024-03-12T18:12:54.348Z,15.90
2024-03-12T18:15:24.887Z,16.40
2024-03-12T18:17:53.581Z,17.30
2024-03-12T18:20:25.582Z,16.70
2024-03-12T18:22:54.373Z,16.00
2024-03-12T18:25:22.413Z,15.90
2024-03-12T18:27:54.847Z,16.90
2024-03-12T18:30:22.935Z,14.90
2024-03-12T18:32:50.805Z,16.00
2024-03-12T18:35:20.779Z,15.30
2024-03-12T18:37:48.577Z,15.50
2024-03-12T18:40:20.034Z,15.60
2024-03-12T18:42:49.527Z,15.70
2024-03-12T18:45:19.831Z,15.20
2024-03-12T18:47:56.957Z,16.80
2024-03-12T18:50:29.313Z,17.10
2024-03-12T18:52:57.192Z,16.20
2024-03-12T18:55:28.132Z,15.80
2024-03-12T18:57:58.052Z,16.70
2024-03-12T19:00:27.192Z,16.90
2024-03-12T19:02:55.196Z,16.00
2024-03-12T19:05:23.488Z,16.50
2024-03-12T19:07:52.417Z,16.50
2024-03-12T19:10:21.089Z,16.30
2024-03-12T19:12:50.756Z,15.20
2024-03-12T19:15:26.534Z,15.80
2024-03-12T19:17:56.044Z,16.80
2024-03-12T19:20:26.433Z,15.60
2024-03-12T19:22:57.703Z,15.10
2024-03-12T19:25:27.391Z,15.80
2024-03-12T19:27:56.431Z,16.10
2024-03-12T19:30:26.187Z,15.60
2024-03-12T19:32:54.581Z,17.50
2024-03-12T19:35:23.206Z,17.40
2024-03-12T19:37:54.472Z,17.90
2024-03-12T19:40:23.016Z,16.60
2024-03-12T19:42:53.227Z,15.30
2024-03-12T19:45:32.519Z,16.50
2024-03-12T19:48:03.358Z,17.20
2024-03-12T19:50:31.824Z,16.30
2024-03-12T19:52:59.646Z,16.30
2024-03-12T19:55:31.501Z,17.10
2024-03-12T19:58:03.350Z,16.90
2024-03-12T20:00:35.799Z,17.40
2024-03-12T20:03:07.586Z,17.50
2024-03-12T20:05:39.467Z,17.80
2024-03-12T20:08:10.445Z,16.10
2024-03-12T20:10:40.222Z,16.70
2024-03-12T20:13:08.175Z,17.90
2024-03-12T20:15:38.541Z,16.60
2024-03-12T20:18:07.538Z,17.40
2024-03-12T20:20:35.565Z,16.80
2024-03-12T20:23:04.911Z,18.70
2024-03-12T20:26:46.877Z,18.10
2024-03-12T20:29:14.485Z,18.60
2024-03-12T20:31:42.228Z,19.30
2024-03-12T20:34:09.992Z,17.60
2024-03-12T20:36:37.955Z,18.70
2024-03-12T20:39:16.483Z,18.00
2024-03-12T20:41:44.118Z,17.40
2024-03-12T20:44:11.983Z,16.70
2024-03-12T20:46:41.259Z,19.40
2024-03-12T20:49:10.837Z,21.40
2024-03-12T20:51:38.637Z,17.90
2024-03-12T20:54:09.537Z,18.20
2024-03-12T20:56:37.299Z,17.90
2024-03-12T20:59:06.276Z,19.10
2024-03-12T21:01:33.861Z,17.90
2024-03-12T21:04:03.511Z,17.90
2024-03-12T21:06:32.540Z,17.40
2024-03-12T21:09:11.544Z,18.10
2024-03-12T21:11:42.688Z,17.90
2024-03-12T21:14:10.189Z,19.40
2024-03-12T21:16:37.761Z,19.50
2024-03-12T21:19:05.424Z,18.70
2024-03-12T21:21:33.642Z,19.00
2024-03-12T21:24:01.185Z,19.30
2024-03-12T21:26:28.789Z,19.20
2024-03-12T21:28:56.777Z,17.50
2024-03-12T21:31:24.321Z,18.50
2024-03-12T21:33:51.824Z,16.90
2024-03-12T21:36:19.398Z,17.50
2024-03-12T21:38:49.480Z,16.90
2024-03-12T21:41:17.181Z,17.10
2024-03-12T21:43:45.906Z,17.00
2024-03-12T21:46:13.440Z,14.90
2024-03-12T21:48:41.213Z,16.20
2024-03-12T21:51:10.184Z,16.30
2024-03-12T21:53:37.688Z,16.80
2024-03-12T21:56:08.920Z,17.50
2024-03-12T21:58:36.336Z,16.60
2024-03-12T22:01:04.381Z,17.10
2024-03-12T22:03:32.580Z,17.80
2024-03-12T22:06:00.342Z,16.00
2024-03-12T22:08:27.891Z,17.80
2024-03-12T22:10:58.040Z,17.00
2024-03-12T22:13:31.569Z,15.30
2024-03-12T22:16:06.790Z,17.00
2024-03-12T22:18:35.717Z,16.50
2024-03-12T22:21:03.648Z,15.70
2024-03-12T22:23:34.489Z,15.70
2024-03-12T22:26:01.913Z,15.90
2024-03-12T22:28:29.380Z,15.10
2024-03-12T22:30:56.947Z,16.30
2024-03-12T22:33:26.126Z,15.60
2024-03-12T22:35:53.865Z,15.90
2024-03-12T22:38:21.713Z,16.40
2024-03-12T22:40:52.171Z,16.50
2024-03-12T22:43:20.358Z,16.40
2024-03-12T22:45:49.535Z,17.10
2024-03-12T22:48:18.551Z,17.20
2024-03-12T22:50:46.165Z,16.10
2024-03-12T22:53:14.995Z,15.60
2024-03-12T22:55:42.743Z,16.80
2024-03-12T22:58:11.838Z,16.30
2024-03-12T23:00:39.651Z,17.00
2024-03-12T23:03:07.732Z,18.50
2024-03-12T23:05:35.682Z,18.10
2024-03-12T23:08:07.293Z,17.40
2024-03-12T23:10:40.936Z,17.90
2024-03-12T23:15:40.168Z,17.80
2024-03-12T23:18:11.970Z,17.40
2024-03-12T23:20:46.189Z,16.30
2024-03-12T23:23:14.863Z,16.80
2024-03-12T23:25:42.876Z,17.10
2024-03-12T23:28:12.007Z,17.80
2024-03-12T23:30:40.161Z,18.90
2024-03-12T23:33:11.559Z,20.30
2024-03-12T23:35:39.047Z,21.60
2024-03-12T23:38:06.902Z,21.90
2024-03-12T23:40:34.566Z,21.30
2024-03-12T23:43:02.447Z,19.30
2024-03-12T23:45:32.149Z,20.80
2024-03-12T23:47:59.774Z,21.80
2024-03-12T23:50:27.365Z,21.90
2024-03-12T23:52:55.876Z,20.20
2024-03-12T23:55:23.850Z,20.50
2024-03-12T23:57:54.691Z,19.60
